sensor_id;sensor_type;location;lat;lon;timestamp;P1;durP1;ratioP1;P2;durP2;ratioP2
46507;SDS011;32223;53.654;10.014;2022-12-15T00:01:57;16.65;;;9.35;;
46507;SDS011;32223;53.654;10.014;2022-12-15T00:04:42;20.77;;;9.70;;
46507;SDS011;32223;53.654;10.014;2022-12-15T00:07:26;15.90;;;8.20;;
46507;SDS011;32223;53.654;10.014;2022-12-15T00:10:10;22.02;;;10.13;;
46507;SDS011;32223;53.654;10.014;2022-12-15T00:12:54;26.15;;;10.98;;
46507;SDS011;32223;53.654;10.014;2022-12-15T00:15:38;22.27;;;10.30;;
46507;SDS011;32223;53.654;10.014;2022-12-15T00:18:22;17.35;;;9.68;;
46507;SDS011;32223;53.654;10.014;2022-12-15T00:21:06;20.67;;;10.18;;
46507;SDS011;32223;53.654;10.014;2022-12-15T00:23:50;18.05;;;9.18;;
46507;SDS011;32223;53.654;10.014;2022-12-15T00:26:34;20.33;;;9.43;;
46507;SDS011;32223;53.654;10.014;2022-12-15T00:29:18;18.13;;;8.93;;
46507;SDS011;32223;53.654;10.014;2022-12-15T00:32:02;17.48;;;8.95;;
46507;SDS011;32223;53.654;10.014;2022-12-15T00:34:47;22.30;;;10.07;;
46507;SDS011;32223;53.654;10.014;2022-12-15T00:37:31;18.95;;;10.35;;
46507;SDS011;32223;53.654;10.014;2022-12-15T00:40:15;20.67;;;8.82;;
46507;SDS011;32223;53.654;10.014;2022-12-15T00:42:40;17.30;;;8.95;;
46507;SDS011;32223;53.654;10.014;2022-12-15T00:45:06;22.00;;;9.95;;
46507;SDS011;32223;53.654;10.014;2022-12-15T00:47:32;17.42;;;10.10;;
46507;SDS011;32223;53.654;10.014;2022-12-15T00:49:58;17.92;;;9.25;;
46507;SDS011;32223;53.654;10.014;2022-12-15T00:52:43;16.10;;;8.55;;
46507;SDS011;32223;53.654;10.014;2022-12-15T00:55:27;18.80;;;9.63;;
46507;SDS011;32223;53.654;10.014;2022-12-15T00:58:11;17.20;;;8.88;;
46507;SDS011;32223;53.654;10.014;2022-12-15T01:00:55;19.63;;;10.00;;
46507;SDS011;32223;53.654;10.014;2022-12-15T01:03:39;18.63;;;9.60;;
46507;SDS011;32223;53.654;10.014;2022-12-15T01:06:24;17.65;;;7.95;;
46507;SDS011;32223;53.654;10.014;2022-12-15T01:09:08;17.48;;;9.13;;
46507;SDS011;32223;53.654;10.014;2022-12-15T01:11:54;17.42;;;8.32;;
46507;SDS011;32223;53.654;10.014;2022-12-15T01:14:38;17.95;;;9.02;;
46507;SDS011;32223;53.654;10.014;2022-12-15T01:17:23;19.17;;;9.32;;
46507;SDS011;32223;53.654;10.014;2022-12-15T01:20:07;15.93;;;9.55;;
46507;SDS011;32223;53.654;10.014;2022-12-15T01:23:00;19.65;;;9.27;;
46507;SDS011;32223;53.654;10.014;2022-12-15T01:25:26;20.27;;;11.05;;
46507;SDS011;32223;53.654;10.014;2022-12-15T01:27:52;18.00;;;9.77;;
46507;SDS011;32223;53.654;10.014;2022-12-15T01:30:19;19.05;;;7.90;;
46507;SDS011;32223;53.654;10.014;2022-12-15T01:32:49;20.50;;;10.07;;
46507;SDS011;32223;53.654;10.014;2022-12-15T01:35:15;25.20;;;9.15;;
46507;SDS011;32223;53.654;10.014;2022-12-15T01:37:41;16.40;;;7.60;;
46507;SDS011;32223;53.654;10.014;2022-12-15T01:40:10;18.90;;;9.48;;
46507;SDS011;32223;53.654;10.014;2022-12-15T01:42:56;19.58;;;9.57;;
46507;SDS011;32223;53.654;10.014;2022-12-15T01:50:24;17.75;;;9.02;;
46507;SDS011;32223;53.654;10.014;2022-12-15T01:52:51;17.63;;;9.77;;
46507;SDS011;32223;53.654;10.014;2022-12-15T01:55:18;18.92;;;9.45;;
46507;SDS011;32223;53.654;10.014;2022-12-15T01:57:45;16.83;;;8.80;;
46507;SDS011;32223;53.654;10.014;2022-12-15T02:00:13;16.50;;;8.85;;
46507;SDS011;32223;53.654;10.014;2022-12-15T02:02:39;16.65;;;10.30;;
46507;SDS011;32223;53.654;10.014;2022-12-15T02:05:05;17.52;;;9.02;;
46507;SDS011;32223;53.654;10.014;2022-12-15T02:07:32;17.40;;;8.55;;
46507;SDS011;32223;53.654;10.014;2022-12-15T02:09:59;17.00;;;9.32;;
46507;SDS011;32223;53.654;10.014;2022-12-15T02:12:40;19.00;;;9.60;;
46507;SDS011;32223;53.654;10.014;2022-12-15T02:21:16;16.55;;;7.28;;
46507;SDS011;32223;53.654;10.014;2022-12-15T02:26:54;18.67;;;8.73;;
46507;SDS011;32223;53.654;10.014;2022-12-15T02:33:05;17.38;;;8.85;;
46507;SDS011;32223;53.654;10.014;2022-12-15T02:35:24;20.35;;;9.13;;
46507;SDS011;32223;53.654;10.014;2022-12-15T02:38:26;14.63;;;7.70;;
46507;SDS011;32223;53.654;10.014;2022-12-15T02:40:56;20.05;;;8.57;;
46507;SDS011;32223;53.654;10.014;2022-12-15T02:43:23;17.92;;;9.15;;
46507;SDS011;32223;53.654;10.014;2022-12-15T02:46:06;21.42;;;8.73;;
46507;SDS011;32223;53.654;10.014;2022-12-15T02:51:42;20.05;;;9.13;;
46507;SDS011;32223;53.654;10.014;2022-12-15T03:00:00;22.30;;;9.65;;
46507;SDS011;32223;53.654;10.014;2022-12-15T03:02:32;12.70;;;5.63;;
46507;SDS011;32223;53.654;10.014;2022-12-15T03:04:58;16.48;;;8.88;;
46507;SDS011;32223;53.654;10.014;2022-12-15T03:07:25;19.25;;;8.90;;
46507;SDS011;32223;53.654;10.014;2022-12-15T03:09:54;16.70;;;8.10;;
46507;SDS011;32223;53.654;10.014;2022-12-15T03:12:26;15.00;;;7.88;;
46507;SDS011;32223;53.654;10.014;2022-12-15T03:14:52;16.70;;;8.85;;
46507;SDS011;32223;53.654;10.014;2022-12-15T03:17:18;16.35;;;9.02;;
46507;SDS011;32223;53.654;10.014;2022-12-15T03:19:44;19.45;;;9.57;;
46507;SDS011;32223;53.654;10.014;2022-12-15T03:22:10;18.98;;;10.38;;
46507;SDS011;32223;53.654;10.014;2022-12-15T03:24:35;15.77;;;9.13;;
46507;SDS011;32223;53.654;10.014;2022-12-15T03:27:01;19.70;;;9.57;;
46507;SDS011;32223;53.654;10.014;2022-12-15T03:29:27;15.60;;;8.85;;
46507;SDS011;32223;53.654;10.014;2022-12-15T03:31:53;18.17;;;8.68;;
46507;SDS011;32223;53.654;10.014;2022-12-15T03:34:18;18.58;;;8.73;;
46507;SDS011;32223;53.654;10.014;2022-12-15T03:36:44;18.73;;;10.32;;
46507;SDS011;32223;53.654;10.014;2022-12-15T03:39:09;19.90;;;10.05;;
46507;SDS011;32223;53.654;10.014;2022-12-15T03:41:35;21.00;;;9.32;;
46507;SDS011;32223;53.654;10.014;2022-12-15T03:44:00;20.23;;;9.15;;
46507;SDS011;32223;53.654;10.014;2022-12-15T03:46:26;17.40;;;8.88;;
46507;SDS011;32223;53.654;10.014;2022-12-15T03:48:52;19.92;;;10.73;;
46507;SDS011;32223;53.654;10.014;2022-12-15T03:51:18;17.77;;;9.30;;
46507;SDS011;32223;53.654;10.014;2022-12-15T03:53:44;14.85;;;8.90;;
46507;SDS011;32223;53.654;10.014;2022-12-15T03:56:14;20.50;;;9.90;;
46507;SDS011;32223;53.654;10.014;2022-12-15T03:58:40;20.05;;;9.35;;
46507;SDS011;32223;53.654;10.014;2022-12-15T04:01:39;20.75;;;9.93;;
46507;SDS011;32223;53.654;10.014;2022-12-15T04:04:00;14.35;;;8.55;;
46507;SDS011;32223;53.654;10.014;2022-12-15T04:06:27;19.25;;;9.60;;
46507;SDS011;32223;53.654;10.014;2022-12-15T04:08:54;20.70;;;9.43;;
46507;SDS011;32223;53.654;10.014;2022-12-15T04:11:19;23.77;;;9.77;;
46507;SDS011;32223;53.654;10.014;2022-12-15T04:13:45;19.40;;;9.07;;
46507;SDS011;32223;53.654;10.014;2022-12-15T04:16:11;21.08;;;9.32;;
46507;SDS011;32223;53.654;10.014;2022-12-15T04:18:36;20.58;;;9.75;;
46507;SDS011;32223;53.654;10.014;2022-12-15T04:21:02;19.88;;;9.35;;
46507;SDS011;32223;53.654;10.014;2022-12-15T04:23:28;20.88;;;10.05;;
46507;SDS011;32223;53.654;10.014;2022-12-15T04:25:54;25.13;;;9.85;;
46507;SDS011;32223;53.654;10.014;2022-12-15T04:28:38;24.90;;;10.68;;
46507;SDS011;32223;53.654;10.014;2022-12-15T04:31:23;21.52;;;9.63;;
46507;SDS011;32223;53.654;10.014;2022-12-15T04:34:18;17.67;;;9.00;;
46507;SDS011;32223;53.654;10.014;2022-12-15T04:37:10;18.45;;;9.00;;
46507;SDS011;32223;53.654;10.014;2022-12-15T04:39:56;20.15;;;10.15;;
46507;SDS011;32223;53.654;10.014;2022-12-15T04:42:43;20.50;;;9.07;;
46507;SDS011;32223;53.654;10.014;2022-12-15T04:45:29;19.40;;;10.23;;
46507;SDS011;32223;53.654;10.014;2022-12-15T04:48:13;17.27;;;8.35;;
46507;SDS011;32223;53.654;10.014;2022-12-15T04:50:58;18.05;;;9.30;;
46507;SDS011;32223;53.654;10.014;2022-12-15T04:53:42;19.67;;;9.32;;
46507;SDS011;32223;53.654;10.014;2022-12-15T04:56:27;21.75;;;10.23;;
46507;SDS011;32223;53.654;10.014;2022-12-15T04:59:11;19.85;;;10.65;;
46507;SDS011;32223;53.654;10.014;2022-12-15T05:01:56;22.58;;;10.52;;
46507;SDS011;32223;53.654;10.014;2022-12-15T05:04:40;18.40;;;9.45;;
46507;SDS011;32223;53.654;10.014;2022-12-15T05:07:24;17.88;;;9.02;;
46507;SDS011;32223;53.654;10.014;2022-12-15T05:10:08;19.35;;;10.70;;
46507;SDS011;32223;53.654;10.014;2022-12-15T05:12:53;18.50;;;9.48;;
46507;SDS011;32223;53.654;10.014;2022-12-15T05:15:37;17.58;;;10.05;;
46507;SDS011;32223;53.654;10.014;2022-12-15T05:18:21;21.15;;;10.02;;
46507;SDS011;32223;53.654;10.014;2022-12-15T05:21:05;18.60;;;10.35;;
46507;SDS011;32223;53.654;10.014;2022-12-15T05:23:50;43.45;;;11.70;;
46507;SDS011;32223;53.654;10.014;2022-12-15T05:26:35;17.50;;;8.25;;
46507;SDS011;32223;53.654;10.014;2022-12-15T05:29:19;24.13;;;11.00;;
46507;SDS011;32223;53.654;10.014;2022-12-15T05:32:05;20.98;;;9.85;;
46507;SDS011;32223;53.654;10.014;2022-12-15T05:34:32;23.73;;;11.02;;
46507;SDS011;32223;53.654;10.014;2022-12-15T05:37:00;24.65;;;9.68;;
46507;SDS011;32223;53.654;10.014;2022-12-15T05:39:27;21.90;;;10.10;;
46507;SDS011;32223;53.654;10.014;2022-12-15T05:41:53;23.00;;;10.25;;
46507;SDS011;32223;53.654;10.014;2022-12-15T05:44:20;20.00;;;11.30;;
46507;SDS011;32223;53.654;10.014;2022-12-15T05:46:45;21.30;;;9.77;;
46507;SDS011;32223;53.654;10.014;2022-12-15T05:49:12;22.55;;;10.68;;
46507;SDS011;32223;53.654;10.014;2022-12-15T05:51:40;23.30;;;10.27;;
46507;SDS011;32223;53.654;10.014;2022-12-15T05:54:10;28.83;;;11.82;;
46507;SDS011;32223;53.654;10.014;2022-12-15T05:56:37;19.67;;;10.35;;
46507;SDS011;32223;53.654;10.014;2022-12-15T05:59:03;17.40;;;10.02;;
46507;SDS011;32223;53.654;10.014;2022-12-15T06:01:29;22.92;;;11.02;;
46507;SDS011;32223;53.654;10.014;2022-12-15T06:03:55;22.95;;;10.38;;
46507;SDS011;32223;53.654;10.014;2022-12-15T06:06:22;20.90;;;10.00;;
46507;SDS011;32223;53.654;10.014;2022-12-15T06:08:48;18.90;;;9.27;;
46507;SDS011;32223;53.654;10.014;2022-12-15T06:11:14;25.17;;;11.52;;
46507;SDS011;32223;53.654;10.014;2022-12-15T06:13:41;22.45;;;11.35;;
46507;SDS011;32223;53.654;10.014;2022-12-15T06:16:12;20.77;;;9.52;;
46507;SDS011;32223;53.654;10.014;2022-12-15T06:18:40;22.35;;;10.30;;
46507;SDS011;32223;53.654;10.014;2022-12-15T06:21:12;22.13;;;10.35;;
46507;SDS011;32223;53.654;10.014;2022-12-15T06:23:40;19.50;;;9.73;;
46507;SDS011;32223;53.654;10.014;2022-12-15T06:26:28;19.58;;;10.05;;
46507;SDS011;32223;53.654;10.014;2022-12-15T06:28:54;20.30;;;9.55;;
46507;SDS011;32223;53.654;10.014;2022-12-15T06:31:22;24.30;;;11.52;;
46507;SDS011;32223;53.654;10.014;2022-12-15T06:33:50;23.40;;;10.45;;
46507;SDS011;32223;53.654;10.014;2022-12-15T06:36:16;22.65;;;11.25;;
46507;SDS011;32223;53.654;10.014;2022-12-15T06:38:42;23.02;;;10.40;;
46507;SDS011;32223;53.654;10.014;2022-12-15T06:41:09;25.55;;;12.15;;
46507;SDS011;32223;53.654;10.014;2022-12-15T06:43:36;20.95;;;11.90;;
46507;SDS011;32223;53.654;10.014;2022-12-15T06:46:02;19.45;;;9.85;;
46507;SDS011;32223;53.654;10.014;2022-12-15T06:48:29;18.40;;;9.77;;
46507;SDS011;32223;53.654;10.014;2022-12-15T06:50:55;23.92;;;10.63;;
46507;SDS011;32223;53.654;10.014;2022-12-15T06:53:22;21.63;;;10.57;;
46507;SDS011;32223;53.654;10.014;2022-12-15T06:55:48;21.25;;;10.32;;
46507;SDS011;32223;53.654;10.014;2022-12-15T06:58:14;25.42;;;10.20;;
46507;SDS011;32223;53.654;10.014;2022-12-15T07:00:41;19.52;;;9.88;;
46507;SDS011;32223;53.654;10.014;2022-12-15T07:03:14;25.20;;;11.38;;
46507;SDS011;32223;53.654;10.014;2022-12-15T07:05:43;30.35;;;12.05;;
46507;SDS011;32223;53.654;10.014;2022-12-15T07:08:10;19.88;;;11.30;;
46507;SDS011;32223;53.654;10.014;2022-12-15T07:10:40;21.75;;;10.85;;
46507;SDS011;32223;53.654;10.014;2022-12-15T07:13:11;23.42;;;11.35;;
46507;SDS011;32223;53.654;10.014;2022-12-15T07:15:38;20.17;;;10.63;;
46507;SDS011;32223;53.654;10.014;2022-12-15T07:18:04;22.75;;;9.85;;
46507;SDS011;32223;53.654;10.014;2022-12-15T07:20:30;22.92;;;10.70;;
46507;SDS011;32223;53.654;10.014;2022-12-15T07:22:56;22.05;;;11.43;;
46507;SDS011;32223;53.654;10.014;2022-12-15T07:25:21;21.95;;;11.80;;
46507;SDS011;32223;53.654;10.014;2022-12-15T07:27:47;23.48;;;11.18;;
46507;SDS011;32223;53.654;10.014;2022-12-15T07:30:13;25.13;;;11.10;;
46507;SDS011;32223;53.654;10.014;2022-12-15T07:32:40;24.75;;;11.18;;
46507;SDS011;32223;53.654;10.014;2022-12-15T07:35:08;22.98;;;10.65;;
46507;SDS011;32223;53.654;10.014;2022-12-15T07:37:34;46.92;;;24.05;;
46507;SDS011;32223;53.654;10.014;2022-12-15T07:40:01;25.23;;;14.05;;
46507;SDS011;32223;53.654;10.014;2022-12-15T07:42:28;30.27;;;12.48;;
46507;SDS011;32223;53.654;10.014;2022-12-15T07:44:53;23.83;;;11.38;;
46507;SDS011;32223;53.654;10.014;2022-12-15T07:47:19;18.55;;;10.77;;
46507;SDS011;32223;53.654;10.014;2022-12-15T07:49:45;22.75;;;11.13;;
46507;SDS011;32223;53.654;10.014;2022-12-15T07:52:10;25.05;;;11.20;;
46507;SDS011;32223;53.654;10.014;2022-12-15T07:54:38;21.95;;;9.55;;
46507;SDS011;32223;53.654;10.014;2022-12-15T07:57:04;22.05;;;10.93;;
46507;SDS011;32223;53.654;10.014;2022-12-15T07:59:31;19.67;;;10.98;;
46507;SDS011;32223;53.654;10.014;2022-12-15T08:01:58;20.10;;;10.50;;
46507;SDS011;32223;53.654;10.014;2022-12-15T08:04:25;22.40;;;9.95;;
46507;SDS011;32223;53.654;10.014;2022-12-15T08:06:54;21.90;;;10.23;;
46507;SDS011;32223;53.654;10.014;2022-12-15T08:09:20;20.60;;;10.65;;
46507;SDS011;32223;53.654;10.014;2022-12-15T08:11:46;18.27;;;10.50;;
46507;SDS011;32223;53.654;10.014;2022-12-15T08:14:11;20.05;;;10.32;;
46507;SDS011;32223;53.654;10.014;2022-12-15T08:16:37;22.40;;;10.90;;
46507;SDS011;32223;53.654;10.014;2022-12-15T08:19:04;25.48;;;11.63;;
46507;SDS011;32223;53.654;10.014;2022-12-15T08:21:30;21.63;;;10.75;;
46507;SDS011;32223;53.654;10.014;2022-12-15T08:23:57;19.08;;;8.82;;
46507;SDS011;32223;53.654;10.014;2022-12-15T08:26:24;21.05;;;9.85;;
46507;SDS011;32223;53.654;10.014;2022-12-15T08:28:50;17.08;;;9.05;;
46507;SDS011;32223;53.654;10.014;2022-12-15T08:31:20;19.95;;;10.57;;
46507;SDS011;32223;53.654;10.014;2022-12-15T08:33:48;21.90;;;9.65;;
46507;SDS011;32223;53.654;10.014;2022-12-15T08:36:15;18.08;;;9.98;;
46507;SDS011;32223;53.654;10.014;2022-12-15T08:38:43;20.77;;;9.80;;
46507;SDS011;32223;53.654;10.014;2022-12-15T08:41:16;20.35;;;10.50;;
46507;SDS011;32223;53.654;10.014;2022-12-15T08:43:47;20.17;;;10.95;;
46507;SDS011;32223;53.654;10.014;2022-12-15T08:46:21;19.92;;;9.80;;
46507;SDS011;32223;53.654;10.014;2022-12-15T08:48:49;22.63;;;10.65;;
46507;SDS011;32223;53.654;10.014;2022-12-15T08:51:16;18.45;;;9.57;;
46507;SDS011;32223;53.654;10.014;2022-12-15T08:53:43;21.88;;;10.05;;
46507;SDS011;32223;53.654;10.014;2022-12-15T08:56:10;20.65;;;12.13;;
46507;SDS011;32223;53.654;10.014;2022-12-15T08:58:37;17.45;;;9.18;;
46507;SDS011;32223;53.654;10.014;2022-12-15T09:01:04;24.00;;;10.90;;
46507;SDS011;32223;53.654;10.014;2022-12-15T09:03:35;23.77;;;11.00;;
46507;SDS011;32223;53.654;10.014;2022-12-15T09:06:01;20.83;;;10.68;;
46507;SDS011;32223;53.654;10.014;2022-12-15T09:08:31;21.27;;;10.45;;
46507;SDS011;32223;53.654;10.014;2022-12-15T09:10:58;19.30;;;9.77;;
46507;SDS011;32223;53.654;10.014;2022-12-15T09:13:24;19.75;;;11.18;;
46507;SDS011;32223;53.654;10.014;2022-12-15T09:15:54;19.40;;;10.77;;
46507;SDS011;32223;53.654;10.014;2022-12-15T09:18:24;19.25;;;10.23;;
46507;SDS011;32223;53.654;10.014;2022-12-15T09:20:50;23.05;;;10.10;;
46507;SDS011;32223;53.654;10.014;2022-12-15T09:23:16;21.38;;;9.93;;
46507;SDS011;32223;53.654;10.014;2022-12-15T09:25:41;22.52;;;11.73;;
46507;SDS011;32223;53.654;10.014;2022-12-15T09:28:07;15.38;;;9.27;;
46507;SDS011;32223;53.654;10.014;2022-12-15T09:30:32;16.10;;;9.05;;
46507;SDS011;32223;53.654;10.014;2022-12-15T09:32:58;16.08;;;9.48;;
46507;SDS011;32223;53.654;10.014;2022-12-15T09:35:27;25.38;;;11.48;;
46507;SDS011;32223;53.654;10.014;2022-12-15T09:37:52;20.48;;;10.50;;
46507;SDS011;32223;53.654;10.014;2022-12-15T09:40:20;17.95;;;9.50;;
46507;SDS011;32223;53.654;10.014;2022-12-15T09:42:46;21.70;;;11.80;;
46507;SDS011;32223;53.654;10.014;2022-12-15T09:45:20;18.42;;;8.70;;
46507;SDS011;32223;53.654;10.014;2022-12-15T09:47:52;16.77;;;9.10;;
46507;SDS011;32223;53.654;10.014;2022-12-15T09:50:28;16.13;;;8.73;;
46507;SDS011;32223;53.654;10.014;2022-12-15T09:52:58;15.90;;;8.65;;
46507;SDS011;32223;53.654;10.014;2022-12-15T09:55:27;14.32;;;7.47;;
46507;SDS011;32223;53.654;10.014;2022-12-15T09:57:58;15.98;;;8.63;;
46507;SDS011;32223;53.654;10.014;2022-12-15T10:00:55;17.38;;;8.00;;
46507;SDS011;32223;53.654;10.014;2022-12-15T10:03:38;17.30;;;8.35;;
46507;SDS011;32223;53.654;10.014;2022-12-15T10:06:33;14.00;;;7.32;;
46507;SDS011;32223;53.654;10.014;2022-12-15T10:09:14;15.32;;;7.90;;
46507;SDS011;32223;53.654;10.014;2022-12-15T10:14:29;19.77;;;9.65;;
46507;SDS011;32223;53.654;10.014;2022-12-15T10:22:30;17.00;;;8.98;;
46507;SDS011;32223;53.654;10.014;2022-12-15T10:24:58;19.15;;;8.50;;
46507;SDS011;32223;53.654;10.014;2022-12-15T10:30:21;22.70;;;9.38;;
46507;SDS011;32223;53.654;10.014;2022-12-15T10:32:55;22.38;;;8.75;;
46507;SDS011;32223;53.654;10.014;2022-12-15T10:41:02;21.50;;;9.68;;
46507;SDS011;32223;53.654;10.014;2022-12-15T10:48:49;22.17;;;8.73;;
46507;SDS011;32223;53.654;10.014;2022-12-15T10:51:20;17.50;;;9.00;;
46507;SDS011;32223;53.654;10.014;2022-12-15T10:54:02;16.25;;;8.63;;
46507;SDS011;32223;53.654;10.014;2022-12-15T10:56:28;18.17;;;9.40;;
46507;SDS011;32223;53.654;10.014;2022-12-15T10:58:57;14.90;;;8.05;;
46507;SDS011;32223;53.654;10.014;2022-12-15T11:01:25;17.27;;;9.90;;
46507;SDS011;32223;53.654;10.014;2022-12-15T11:03:52;17.35;;;8.45;;
46507;SDS011;32223;53.654;10.014;2022-12-15T11:06:20;15.15;;;8.20;;
46507;SDS011;32223;53.654;10.014;2022-12-15T11:08:50;14.77;;;8.40;;
46507;SDS011;32223;53.654;10.014;2022-12-15T11:11:23;16.17;;;8.50;;
46507;SDS011;32223;53.654;10.014;2022-12-15T11:14:13;14.10;;;8.35;;
46507;SDS011;32223;53.654;10.014;2022-12-15T11:16:44;18.90;;;9.40;;
46507;SDS011;32223;53.654;10.014;2022-12-15T11:19:13;19.23;;;9.82;;
46507;SDS011;32223;53.654;10.014;2022-12-15T11:21:50;15.55;;;7.45;;
46507;SDS011;32223;53.654;10.014;2022-12-15T11:24:21;21.45;;;9.38;;
46507;SDS011;32223;53.654;10.014;2022-12-15T11:32:33;15.63;;;7.85;;
46507;SDS011;32223;53.654;10.014;2022-12-15T11:35:02;15.50;;;7.85;;
46507;SDS011;32223;53.654;10.014;2022-12-15T11:40:18;16.95;;;8.35;;
46507;SDS011;32223;53.654;10.014;2022-12-15T11:48:34;14.18;;;7.15;;
46507;SDS011;32223;53.654;10.014;2022-12-15T11:51:13;13.65;;;6.60;;
46507;SDS011;32223;53.654;10.014;2022-12-15T11:53:57;13.57;;;6.50;;
46507;SDS011;32223;53.654;10.014;2022-12-15T11:56:31;14.10;;;6.80;;
46507;SDS011;32223;53.654;10.014;2022-12-15T12:04:47;11.05;;;6.43;;
46507;SDS011;32223;53.654;10.014;2022-12-15T12:18:20;13.88;;;7.97;;
46507;SDS011;32223;53.654;10.014;2022-12-15T12:21:01;18.25;;;9.40;;
46507;SDS011;32223;53.654;10.014;2022-12-15T12:26:13;14.10;;;6.70;;
46507;SDS011;32223;53.654;10.014;2022-12-15T12:28:50;11.93;;;6.47;;
46507;SDS011;32223;53.654;10.014;2022-12-15T12:43:10;16.25;;;7.10;;
46507;SDS011;32223;53.654;10.014;2022-12-15T12:45:53;14.55;;;6.57;;
46507;SDS011;32223;53.654;10.014;2022-12-15T12:48:25;13.43;;;7.05;;
46507;SDS011;32223;53.654;10.014;2022-12-15T12:50:52;13.65;;;6.78;;
46507;SDS011;32223;53.654;10.014;2022-12-15T12:53:41;11.02;;;7.57;;
46507;SDS011;32223;53.654;10.014;2022-12-15T12:56:26;14.70;;;7.30;;
46507;SDS011;32223;53.654;10.014;2022-12-15T12:58:55;10.68;;;6.68;;
46507;SDS011;32223;53.654;10.014;2022-12-15T13:04:07;12.82;;;7.05;;
46507;SDS011;32223;53.654;10.014;2022-12-15T13:14:34;19.92;;;6.85;;
46507;SDS011;32223;53.654;10.014;2022-12-15T13:22:23;12.98;;;6.65;;
46507;SDS011;32223;53.654;10.014;2022-12-15T13:24:56;9.70;;;6.30;;
46507;SDS011;32223;53.654;10.014;2022-12-15T13:27:22;12.23;;;7.13;;
46507;SDS011;32223;53.654;10.014;2022-12-15T13:30:30;9.95;;;6.35;;
46507;SDS011;32223;53.654;10.014;2022-12-15T13:32:43;12.30;;;6.75;;
46507;SDS011;32223;53.654;10.014;2022-12-15T13:38:00;13.55;;;6.93;;
46507;SDS011;32223;53.654;10.014;2022-12-15T13:45:49;10.40;;;5.35;;
46507;SDS011;32223;53.654;10.014;2022-12-15T13:48:38;13.02;;;6.25;;
46507;SDS011;32223;53.654;10.014;2022-12-15T13:51:11;13.95;;;6.53;;
46507;SDS011;32223;53.654;10.014;2022-12-15T13:54:12;12.90;;;6.95;;
46507;SDS011;32223;53.654;10.014;2022-12-15T14:13:17;24.52;;;12.80;;
46507;SDS011;32223;53.654;10.014;2022-12-15T14:15:45;16.58;;;9.65;;
46507;SDS011;32223;53.654;10.014;2022-12-15T14:18:21;12.48;;;6.25;;
46507;SDS011;32223;53.654;10.014;2022-12-15T14:20:51;12.57;;;5.65;;
46507;SDS011;32223;53.654;10.014;2022-12-15T14:23:21;9.68;;;5.90;;
46507;SDS011;32223;53.654;10.014;2022-12-15T14:25:53;13.03;;;6.03;;
46507;SDS011;32223;53.654;10.014;2022-12-15T14:28:32;12.52;;;5.68;;
46507;SDS011;32223;53.654;10.014;2022-12-15T14:31:03;27.10;;;12.32;;
46507;SDS011;32223;53.654;10.014;2022-12-15T14:33:42;15.10;;;7.93;;
46507;SDS011;32223;53.654;10.014;2022-12-15T14:36:11;13.70;;;5.85;;
46507;SDS011;32223;53.654;10.014;2022-12-15T14:38:46;12.18;;;6.18;;
46507;SDS011;32223;53.654;10.014;2022-12-15T14:41:20;12.48;;;5.85;;
46507;SDS011;32223;53.654;10.014;2022-12-15T14:43:48;9.80;;;5.63;;
46507;SDS011;32223;53.654;10.014;2022-12-15T14:46:17;13.82;;;5.57;;
46507;SDS011;32223;53.654;10.014;2022-12-15T14:48:56;11.88;;;6.93;;
46507;SDS011;32223;53.654;10.014;2022-12-15T14:51:28;9.43;;;5.72;;
46507;SDS011;32223;53.654;10.014;2022-12-15T14:54:02;10.40;;;5.47;;
46507;SDS011;32223;53.654;10.014;2022-12-15T14:56:28;13.60;;;6.72;;
46507;SDS011;32223;53.654;10.014;2022-12-15T14:58:55;11.43;;;6.25;;
46507;SDS011;32223;53.654;10.014;2022-12-15T15:04:20;14.98;;;8.18;;
46507;SDS011;32223;53.654;10.014;2022-12-15T15:06:53;13.52;;;7.53;;
46507;SDS011;32223;53.654;10.014;2022-12-15T15:09:28;15.57;;;7.50;;
46507;SDS011;32223;53.654;10.014;2022-12-15T15:11:58;18.83;;;6.93;;
46507;SDS011;32223;53.654;10.014;2022-12-15T15:14:37;12.52;;;6.55;;
46507;SDS011;32223;53.654;10.014;2022-12-15T15:17:19;10.65;;;5.40;;
46507;SDS011;32223;53.654;10.014;2022-12-15T15:19:47;17.27;;;7.63;;
46507;SDS011;32223;53.654;10.014;2022-12-15T15:22:33;13.35;;;6.18;;
46507;SDS011;32223;53.654;10.014;2022-12-15T15:27:59;16.45;;;8.30;;
46507;SDS011;32223;53.654;10.014;2022-12-15T15:30:26;8.13;;;5.30;;
46507;SDS011;32223;53.654;10.014;2022-12-15T15:32:56;12.52;;;6.78;;
46507;SDS011;32223;53.654;10.014;2022-12-15T15:35:24;10.48;;;5.82;;
46507;SDS011;32223;53.654;10.014;2022-12-15T15:37:54;14.00;;;6.43;;
46507;SDS011;32223;53.654;10.014;2022-12-15T15:40:48;13.60;;;6.22;;
46507;SDS011;32223;53.654;10.014;2022-12-15T15:43:14;12.85;;;6.68;;
46507;SDS011;32223;53.654;10.014;2022-12-15T15:45:41;13.07;;;6.50;;
46507;SDS011;32223;53.654;10.014;2022-12-15T15:48:08;13.30;;;6.68;;
46507;SDS011;32223;53.654;10.014;2022-12-15T15:50:38;8.70;;;5.78;;
46507;SDS011;32223;53.654;10.014;2022-12-15T15:53:04;12.38;;;6.50;;
46507;SDS011;32223;53.654;10.014;2022-12-15T15:55:30;11.52;;;5.88;;
46507;SDS011;32223;53.654;10.014;2022-12-15T15:57:57;11.73;;;5.97;;
46507;SDS011;32223;53.654;10.014;2022-12-15T16:00:24;10.75;;;6.18;;
46507;SDS011;32223;53.654;10.014;2022-12-15T16:02:50;13.05;;;6.55;;
46507;SDS011;32223;53.654;10.014;2022-12-15T16:05:16;11.25;;;5.78;;
46507;SDS011;32223;53.654;10.014;2022-12-15T16:07:42;12.52;;;5.82;;
46507;SDS011;32223;53.654;10.014;2022-12-15T16:10:11;12.05;;;6.57;;
46507;SDS011;32223;53.654;10.014;2022-12-15T16:12:48;11.73;;;6.25;;
46507;SDS011;32223;53.654;10.014;2022-12-15T16:15:19;11.23;;;6.80;;
46507;SDS011;32223;53.654;10.014;2022-12-15T16:17:47;12.80;;;6.32;;
46507;SDS011;32223;53.654;10.014;2022-12-15T16:20:15;12.20;;;6.45;;
46507;SDS011;32223;53.654;10.014;2022-12-15T16:22:42;12.77;;;6.85;;
46507;SDS011;32223;53.654;10.014;2022-12-15T16:25:23;14.13;;;6.47;;
46507;SDS011;32223;53.654;10.014;2022-12-15T16:27:56;13.50;;;6.43;;
46507;SDS011;32223;53.654;10.014;2022-12-15T16:30:22;10.50;;;6.43;;
46507;SDS011;32223;53.654;10.014;2022-12-15T16:32:49;11.85;;;6.20;;
46507;SDS011;32223;53.654;10.014;2022-12-15T16:35:16;16.08;;;7.28;;
46507;SDS011;32223;53.654;10.014;2022-12-15T16:37:42;13.43;;;6.60;;
46507;SDS011;32223;53.654;10.014;2022-12-15T16:40:14;12.85;;;7.32;;
46507;SDS011;32223;53.654;10.014;2022-12-15T16:42:47;14.82;;;7.55;;
46507;SDS011;32223;53.654;10.014;2022-12-15T16:45:17;11.93;;;7.28;;
46507;SDS011;32223;53.654;10.014;2022-12-15T16:47:45;15.55;;;7.72;;
46507;SDS011;32223;53.654;10.014;2022-12-15T16:50:12;11.57;;;6.55;;
46507;SDS011;32223;53.654;10.014;2022-12-15T16:52:39;12.48;;;6.57;;
46507;SDS011;32223;53.654;10.014;2022-12-15T16:55:08;14.30;;;7.00;;
46507;SDS011;32223;53.654;10.014;2022-12-15T16:57:55;14.02;;;7.57;;
46507;SDS011;32223;53.654;10.014;2022-12-15T17:00:24;14.85;;;7.57;;
46507;SDS011;32223;53.654;10.014;2022-12-15T17:02:52;12.35;;;7.10;;
46507;SDS011;32223;53.654;10.014;2022-12-15T17:05:18;13.23;;;7.68;;
46507;SDS011;32223;53.654;10.014;2022-12-15T17:07:47;19.65;;;8.27;;